Bautista Pino — EASK — position and weather

sailwx.info

Track history (hours):
 
Tides and Currents Weather Stations Pressure Air Temp Water Temp Dewpoint Dewpoint Depression Visibility Wind Speed Wind Dir Waves Ship Positions

Bautista Pino

Last reported at 2017-Apr-13 15:03 UTC. Time now 2017-Jun-22 16:34 UTC.
Position N 43°42' W 005°46'.
Warning: this ship's position is months out of date.

Length 29 m; draft 3.5 m.

Type: Fishing. MMSI: 224181290.

Date/timePositionNaut miles runAvg speedWind from/ knotsBaromVisibWave heightAir tempDewpointWater temp
2017-Apr-13 15:03N 43°42' W 005°46'2 1.8
2017-Apr-13 13:49N 43°41' W 005°43'1 1.3
2017-Apr-13 13:23N 43°42' W 005°44'1 1.2
2017-Apr-13 12:50N 43°41' W 005°43'2 3.6
2017-Apr-13 12:19N 43°41' W 005°41'1 3.5
2017-Apr-13 11:59N 43°40' W 005°39'0 0.1
2017-Apr-13 11:15N 43°40' W 005°39'1 4.0
2017-Apr-13 10:58N 43°40' W 005°38'2 4.0
2017-Apr-13 10:30N 43°39' W 005°35'4 7.4
2017-Apr-13 10:00N 43°39' W 005°30'5 9.2
2017-Apr-13 09:30N 43°38' W 005°24'0 0.3
2017-Apr-13 08:31N 43°38' W 005°24'0 4.0
2017-Apr-13 08:26N 43°38' W 005°24'2 3.9
2017-Apr-13 08:00N 43°38' W 005°26'2 4.0
2017-Apr-13 07:30N 43°39' W 005°29'2 4.0
2017-Apr-13 06:55N 43°40' W 005°32'2 4.1
2017-Apr-13 06:27N 43°41' W 005°34'2 4.2
2017-Apr-13 05:55N 43°42' W 005°36'2 3.2
2017-Apr-13 05:20N 43°42' W 005°39'3 6.7
2017-Apr-13 04:56N 43°42' W 005°42'0 0.6
2017-Apr-13 04:26N 43°42' W 005°43'0 0.5
2017-Apr-13 03:26N 43°42' W 005°42'3 6.8
2017-Apr-13 02:59N 43°42' W 005°46'4 8.1
2017-Apr-13 02:30N 43°42' W 005°52'  
Track history (hours):
 
Tides and Currents Weather Stations Pressure Air Temp Water Temp Dewpoint Dewpoint Depression Visibility Wind Speed Wind Dir Waves Ship Positions

Bautista Pino

Last reported at 2017-Apr-13 15:03 UTC. Time now 2017-Jun-22 16:34 UTC.
Position N 43°42' W 005°46'.
Warning: this ship's position is months out of date.

Length 29 m; draft 3.5 m.

Type: Fishing. MMSI: 224181290.

Date/timePositionNaut miles runAvg speedWind from/ knotsBaromVisibWave heightAir tempDewpointWater temp
2017-Apr-13 15:03N 43°42' W 005°46'2 1.8
2017-Apr-13 13:49N 43°41' W 005°43'1 1.3
2017-Apr-13 13:23N 43°42' W 005°44'1 1.2
2017-Apr-13 12:50N 43°41' W 005°43'2 3.6
2017-Apr-13 12:19N 43°41' W 005°41'1 3.5
2017-Apr-13 11:59N 43°40' W 005°39'0 0.1
2017-Apr-13 11:15N 43°40' W 005°39'1 4.0
2017-Apr-13 10:58N 43°40' W 005°38'2 4.0
2017-Apr-13 10:30N 43°39' W 005°35'4 7.4
2017-Apr-13 10:00N 43°39' W 005°30'5 9.2
2017-Apr-13 09:30N 43°38' W 005°24'0 0.3
2017-Apr-13 08:31N 43°38' W 005°24'0 4.0
2017-Apr-13 08:26N 43°38' W 005°24'2 3.9
2017-Apr-13 08:00N 43°38' W 005°26'2 4.0
2017-Apr-13 07:30N 43°39' W 005°29'2 4.0
2017-Apr-13 06:55N 43°40' W 005°32'2 4.1
2017-Apr-13 06:27N 43°41' W 005°34'2 4.2
2017-Apr-13 05:55N 43°42' W 005°36'2 3.2
2017-Apr-13 05:20N 43°42' W 005°39'3 6.7
2017-Apr-13 04:56N 43°42' W 005°42'0 0.6
2017-Apr-13 04:26N 43°42' W 005°43'0 0.5
2017-Apr-13 03:26N 43°42' W 005°42'3 6.8
2017-Apr-13 02:59N 43°42' W 005°46'4 8.1
2017-Apr-13 02:30N 43°42' W 005°52'  

Dump ship's entire track history